Time;durP1;ratioP1;P1;durP2;ratioP2;P2;SDS_P1;SDS_P2;PMS_P1;PMS_P2;Temp;Humidity;BMP_temperature;BMP_pressure;BME280_temperature;BME280_humidity;BME280_pressure;Samples;Min_cycle;Max_cycle;Signal;HPM_P1;HPM_P2
2022/04/28 00:02:12;;;;;;;0.20;0.20;;;7.00;99.90;;;;;;5072961;28;20166;-73
2022/04/28 00:04:38;;;;;;;1.60;1.50;;;6.80;99.90;;;;;;5055042;28;20021;-72
2022/04/28 00:07:04;;;;;;;0.35;0.35;;;6.70;99.90;;;;;;5054560;28;20056;-72
2022/04/28 00:09:30;;;;;;;0.20;0.20;;;6.50;99.90;;;;;;5054987;28;20066;-72
2022/04/28 00:11:56;;;;;;;0.20;0.20;;;6.40;99.90;;;;;;5054611;28;20032;-73
2022/04/28 00:14:22;;;;;;;0.20;0.20;;;6.50;99.90;;;;;;5072554;28;20032;-72
2022/04/28 00:16:47;;;;;;;0.38;0.38;;;6.50;99.90;;;;;;5072402;28;20039;-72
2022/04/28 00:19:13;;;;;;;0.15;0.15;;;6.30;99.90;;;;;;5072443;28;20028;-72
2022/04/28 00:21:39;;;;;;;0.38;0.38;;;6.40;99.90;;;;;;5054719;28;20021;-73
2022/04/28 00:24:05;;;;;;;0.20;0.20;;;6.60;99.90;;;;;;5054906;28;20464;-72
2022/04/28 00:26:31;;;;;;;0.10;0.10;;;6.60;99.90;;;;;;5054283;28;20027;-72
2022/04/28 00:28:57;;;;;;;0.20;0.20;;;6.70;99.90;;;;;;5072634;28;20029;-72
2022/04/28 00:31:23;;;;;;;1.58;1.48;;;6.70;99.90;;;;;;5054400;28;20454;-72
2022/04/28 00:33:49;;;;;;;0.15;0.15;;;6.80;99.90;;;;;;5072363;28;20492;-72
2022/04/28 00:36:15;;;;;;;0.20;0.20;;;6.80;99.90;;;;;;5072211;28;20028;-72
2022/04/28 00:38:41;;;;;;;1.88;1.75;;;6.80;99.90;;;;;;5072265;28;20461;-73
2022/04/28 00:41:08;;;;;;;0.28;0.28;;;6.70;99.90;;;;;;5072207;28;20073;-72
2022/04/28 00:43:51;;;;;;;0.20;0.20;;;6.70;99.90;;;;;;5054539;28;20029;-72
2022/04/28 00:46:17;;;;;;;0.20;0.20;;;6.50;99.90;;;;;;5072114;28;20020;-72
2022/04/28 00:51:29;;;;;;;0.20;0.20;;;6.40;99.90;;;;;;5072231;28;20348;-72
2022/04/28 00:53:57;;;;;;;1.15;1.10;;;6.20;99.90;;;;;;5071672;28;20131;-72
2022/04/28 00:56:23;;;;;;;0.25;0.25;;;6.10;99.90;;;;;;5071835;28;20028;-72
2022/04/28 00:58:49;;;;;;;0.10;0.10;;;6.20;99.90;;;;;;5071965;28;20492;-72
2022/04/28 01:01:16;;;;;;;0.10;0.10;;;6.30;99.90;;;;;;5072014;28;20520;-72
2022/04/28 01:03:42;;;;;;;0.17;0.17;;;6.30;99.90;;;;;;5054187;28;20026;-73
2022/04/28 01:06:08;;;;;;;0.30;0.30;;;6.30;99.90;;;;;;5071822;28;20100;-73
2022/04/28 01:08:34;;;;;;;0.13;0.13;;;6.30;99.90;;;;;;5071821;28;20052;-72
2022/04/28 01:11:01;;;;;;;0.20;0.20;;;6.20;99.90;;;;;;5071787;28;20024;-72
2022/04/28 01:13:28;;;;;;;0.20;0.20;;;6.30;99.90;;;;;;5071908;28;20107;-72
2022/04/28 01:15:54;;;;;;;1.25;1.25;;;6.30;99.90;;;;;;5071726;28;20024;-72
2022/04/28 01:18:20;;;;;;;0.20;0.20;;;6.30;99.90;;;;;;5071741;28;20029;-72
2022/04/28 01:20:46;;;;;;;0.40;0.40;;;6.40;99.90;;;;;;5071827;28;20090;-73
2022/04/28 01:23:12;;;;;;;0.43;0.43;;;6.40;99.90;;;;;;5071785;28;20025;-72
2022/04/28 01:25:37;;;;;;;0.20;0.20;;;6.30;99.90;;;;;;5071687;28;20031;-72
2022/04/28 01:28:04;;;;;;;0.20;0.20;;;6.30;99.90;;;;;;5037154;28;20082;-72
2022/04/28 01:30:29;;;;;;;0.10;0.10;;;6.40;99.90;;;;;;5071713;28;20099;-72
2022/04/28 01:32:57;;;;;;;0.20;0.20;;;6.30;99.90;;;;;;5053816;28;20107;-72
2022/04/28 01:35:23;;;;;;;0.20;0.20;;;6.40;99.90;;;;;;5053772;28;20077;-72
2022/04/28 01:37:49;;;;;;;6.65;4.63;;;6.40;99.90;;;;;;5053584;28;20043;-72
2022/04/28 01:40:16;;;;;;;0.20;0.20;;;6.60;99.90;;;;;;5071676;28;20020;-72
2022/04/28 01:42:47;;;;;;;1.95;0.73;;;6.60;99.90;;;;;;5037081;28;20021;-72
2022/04/28 01:45:14;;;;;;;0.40;0.40;;;6.70;99.90;;;;;;5071912;28;20020;-72
2022/04/28 01:47:40;;;;;;;0.20;0.20;;;6.90;99.90;;;;;;5053436;28;20036;-73
2022/04/28 01:50:10;;;;;;;0.85;0.85;;;7.00;99.90;;;;;;5071463;28;20043;-72
2022/04/28 01:55:23;;;;;;;0.20;0.20;;;7.10;99.90;;;;;;5071459;28;20518;-72
2022/04/28 01:57:51;;;;;;;0.20;0.20;;;6.90;99.90;;;;;;5053495;28;20148;-72
2022/04/28 02:00:17;;;;;;;0.32;0.32;;;6.90;99.90;;;;;;5071461;28;20016;-73
2022/04/28 02:02:44;;;;;;;0.10;0.10;;;7.00;99.90;;;;;;5053629;28;20033;-72
2022/04/28 02:05:10;;;;;;;0.20;0.20;;;7.20;99.90;;;;;;5072432;28;20036;-72
2022/04/28 02:07:37;;;;;;;0.30;0.30;;;7.20;99.90;;;;;;5056993;28;20074;-73
2022/04/28 02:10:06;;;;;;;0.10;0.10;;;7.20;99.90;;;;;;5075002;28;20046;-72
2022/04/28 02:12:32;;;;;;;0.40;0.40;;;7.30;99.90;;;;;;5056979;28;20406;-73
2022/04/28 02:14:57;;;;;;;0.10;0.10;;;7.30;99.90;;;;;;5074959;28;20103;-72
2022/04/28 02:17:25;;;;;;;0.10;0.10;;;7.30;99.90;;;;;;5074625;28;20020;-72
2022/04/28 02:19:51;;;;;;;1.50;1.45;;;7.30;99.90;;;;;;5056844;28;20020;-72
2022/04/28 02:22:17;;;;;;;0.68;0.68;;;7.40;99.90;;;;;;5074667;28;20146;-71
2022/04/28 02:24:44;;;;;;;0.25;0.25;;;7.40;99.90;;;;;;5074763;28;20024;-72
2022/04/28 02:27:10;;;;;;;0.30;0.30;;;7.50;99.90;;;;;;5074468;28;20031;-73
2022/04/28 02:29:36;;;;;;;1.98;1.88;;;7.50;99.90;;;;;;5056836;28;20025;-72
2022/04/28 02:32:02;;;;;;;0.10;0.10;;;7.50;99.90;;;;;;5056747;28;20024;-72
2022/04/28 02:34:28;;;;;;;0.40;0.40;;;7.50;99.90;;;;;;5074678;28;20120;-72
2022/04/28 02:36:54;;;;;;;0.10;0.10;;;7.30;99.90;;;;;;5056387;28;20099;-72
2022/04/28 02:39:19;;;;;;;0.95;0.95;;;7.40;99.90;;;;;;5074374;28;20025;-73
2022/04/28 02:41:46;;;;;;;2.38;0.95;;;7.10;99.90;;;;;;5074509;28;20264;-73
2022/04/28 02:44:12;;;;;;;0.10;0.10;;;7.00;99.90;;;;;;5039901;28;20258;-73
2022/04/28 02:46:45;;;;;;;1.75;1.15;;;7.00;99.90;;;;;;5056301;28;20508;-72
2022/04/28 02:49:12;;;;;;;0.20;0.20;;;6.80;99.90;;;;;;5074411;28;20495;-72
2022/04/28 02:51:38;;;;;;;0.20;0.20;;;6.80;99.90;;;;;;5056369;28;20024;-72
2022/04/28 02:54:05;;;;;;;0.10;0.10;;;6.60;99.90;;;;;;5074217;28;20534;-72
2022/04/28 02:56:30;;;;;;;0.10;0.10;;;6.60;99.90;;;;;;5074262;28;20037;-73
2022/04/28 02:58:56;;;;;;;0.20;0.20;;;6.70;99.90;;;;;;5056232;28;20033;-72
2022/04/28 03:01:23;;;;;;;0.22;0.22;;;6.60;99.90;;;;;;5074057;28;20027;-72
2022/04/28 03:03:50;;;;;;;0.82;0.82;;;6.40;99.90;;;;;;5056161;28;20067;-72
2022/04/28 03:11:49;;;;;;;3.70;1.48;;;6.30;99.90;;;;;;5074033;28;20025;-72
2022/04/28 03:14:16;;;;;;;0.20;0.20;;;5.90;99.90;;;;;;5073866;28;20090;-72
2022/04/28 03:16:42;;;;;;;0.50;0.50;;;5.90;99.90;;;;;;5055425;28;20055;-73
2022/04/28 03:19:08;;;;;;;0.20;0.20;;;5.90;99.90;;;;;;5073768;28;20032;-72
2022/04/28 03:21:34;;;;;;;0.20;0.20;;;6.00;99.90;;;;;;5055865;28;20490;-73
2022/04/28 03:24:00;;;;;;;0.40;0.40;;;6.20;99.90;;;;;;5073567;28;20066;-72
2022/04/28 03:26:26;;;;;;;0.20;0.20;;;6.20;99.90;;;;;;5055443;28;20478;-72
2022/04/28 03:28:52;;;;;;;0.20;0.20;;;6.30;99.90;;;;;;5055625;28;20108;-72
2022/04/28 03:31:17;;;;;;;0.50;0.50;;;6.30;99.90;;;;;;5055552;28;20430;-73
2022/04/28 03:33:43;;;;;;;1.70;0.38;;;6.30;99.90;;;;;;5073424;28;20031;-73
2022/04/28 03:38:53;;;;;;;0.20;0.20;;;6.10;99.90;;;;;;5073291;28;20021;-72
2022/04/28 03:41:19;;;;;;;0.15;0.15;;;5.80;99.90;;;;;;5055505;28;20107;-72
2022/04/28 03:43:45;;;;;;;0.50;0.50;;;5.60;99.90;;;;;;5073314;28;20488;-73
2022/04/28 03:46:12;;;;;;;0.20;0.20;;;5.60;99.90;;;;;;5055180;28;20017;-72
2022/04/28 03:48:37;;;;;;;0.10;0.10;;;5.60;99.90;;;;;;5073196;28;20392;-73
2022/04/28 03:51:04;;;;;;;0.28;0.28;;;5.60;99.90;;;;;;5073116;28;20107;-72
2022/04/28 03:53:30;;;;;;;0.20;0.20;;;5.70;99.90;;;;;;5038383;28;20086;-72
2022/04/28 03:55:57;;;;;;;0.45;0.45;;;5.60;99.90;;;;;;5054908;28;20518;-73
2022/04/28 03:58:26;;;;;;;0.20;0.20;;;5.70;99.90;;;;;;5072827;28;20112;-73
2022/04/28 04:00:53;;;;;;;0.20;0.20;;;5.70;99.90;;;;;;5073014;28;20024;-72
2022/04/28 04:03:20;;;;;;;0.10;0.10;;;5.90;99.90;;;;;;5073209;28;20100;-73
2022/04/28 04:05:49;;;;;;;3.20;2.15;;;6.10;99.90;;;;;;5072591;28;20016;-72
2022/04/28 04:08:15;;;;;;;0.68;0.68;;;6.20;99.90;;;;;;5072715;28;20036;-72
2022/04/28 04:10:41;;;;;;;0.30;0.30;;;6.10;99.90;;;;;;5072825;28;20039;-72
2022/04/28 04:13:07;;;;;;;0.20;0.20;;;6.20;99.90;;;;;;5072693;28;20020;-72
2022/04/28 04:15:33;;;;;;;0.95;0.77;;;5.80;99.90;;;;;;5054624;28;20028;-72
2022/04/28 04:18:00;;;;;;;0.30;0.30;;;5.50;99.90;;;;;;5072470;28;20438;-72
2022/04/28 04:20:27;;;;;;;0.20;0.20;;;5.50;99.90;;;;;;5054521;28;20021;-72
2022/04/28 04:22:54;;;;;;;0.50;0.50;;;5.40;99.90;;;;;;5054638;28;20040;-72
2022/04/28 04:25:20;;;;;;;0.43;0.43;;;5.20;99.90;;;;;;5072372;28;20040;-72
2022/04/28 04:27:46;;;;;;;0.40;0.40;;;4.90;99.90;;;;;;5071455;28;20035;-72
2022/04/28 04:32:56;;;;;;;0.40;0.40;;;5.00;99.90;;;;;;5072255;28;20021;-72
2022/04/28 04:35:24;;;;;;;0.20;0.20;;;5.10;99.90;;;;;;5072306;28;20029;-72
2022/04/28 04:37:53;;;;;;;0.20;0.20;;;5.10;99.90;;;;;;5054134;28;20044;-72
2022/04/28 04:40:19;;;;;;;0.20;0.20;;;5.30;99.90;;;;;;5054304;28;20082;-72
2022/04/28 04:42:45;;;;;;;0.20;0.20;;;5.60;99.90;;;;;;5072205;28;20459;-72
2022/04/28 04:45:11;;;;;;;1.65;1.55;;;5.60;99.90;;;;;;5054176;28;20021;-72
2022/04/28 04:47:38;;;;;;;0.20;0.20;;;5.50;99.90;;;;;;5072023;28;20071;-72
2022/04/28 04:50:06;;;;;;;0.63;0.63;;;5.60;99.90;;;;;;5072169;28;20031;-72
2022/04/28 04:52:31;;;;;;;0.90;0.90;;;5.50;99.90;;;;;;5071938;28;20047;-72
2022/04/28 04:54:58;;;;;;;1.23;0.63;;;5.20;99.90;;;;;;5072084;28;20024;-72
2022/04/28 04:57:24;;;;;;;0.50;0.50;;;5.20;99.90;;;;;;5053827;28;20024;-73
2022/04/28 04:59:50;;;;;;;0.60;0.47;;;5.20;99.90;;;;;;5072006;28;20028;-72
2022/04/28 05:02:16;;;;;;;0.20;0.20;;;5.20;99.90;;;;;;5071890;28;20500;-72
2022/04/28 05:04:42;;;;;;;0.20;0.20;;;5.50;99.90;;;;;;5053968;28;20107;-72
2022/04/28 05:07:09;;;;;;;0.22;0.22;;;5.40;99.90;;;;;;5071927;28;20056;-72
2022/04/28 05:09:37;;;;;;;0.30;0.30;;;5.40;99.90;;;;;;5071979;28;20029;-73
2022/04/28 05:12:04;;;;;;;0.20;0.20;;;5.40;99.90;;;;;;5071791;28;20067;-72
2022/04/28 05:14:30;;;;;;;0.20;0.20;;;5.40;99.90;;;;;;5037203;28;20033;-72
2022/04/28 05:16:57;;;;;;;0.20;0.20;;;5.40;99.90;;;;;;5071680;28;20029;-72
2022/04/28 05:19:24;;;;;;;3.53;1.00;;;5.40;99.90;;;;;;5037127;28;20031;-72
2022/04/28 05:21:50;;;;;;;0.30;0.30;;;5.60;99.90;;;;;;5071774;28;20708;-72
2022/04/28 05:24:16;;;;;;;1.35;1.20;;;5.60;99.90;;;;;;5071723;28;20021;-73
2022/04/28 05:26:42;;;;;;;0.20;0.20;;;5.70;99.90;;;;;;5053773;28;20383;-72
2022/04/28 05:29:08;;;;;;;0.20;0.20;;;5.70;99.90;;;;;;5071723;28;20020;-72
2022/04/28 05:31:34;;;;;;;0.20;0.20;;;5.70;99.90;;;;;;5071487;28;20480;-74
2022/04/28 05:33:59;;;;;;;0.80;0.80;;;5.70;99.90;;;;;;5053468;28;20024;-73
2022/04/28 05:36:28;;;;;;;0.20;0.20;;;5.70;99.90;;;;;;5056393;28;20493;-72
2022/04/28 05:38:56;;;;;;;0.20;0.20;;;5.60;99.90;;;;;;5034119;28;20044;-72
2022/04/28 05:41:23;;;;;;;0.10;0.10;;;5.80;99.90;;;;;;5037986;28;20052;-73
2022/04/28 05:46:33;;;;;;;0.25;0.25;;;5.90;99.90;;;;;;5070413;22;20020;-73
2022/04/28 05:48:59;;;;;;;0.73;0.47;;;5.80;99.90;;;;;;5056531;28;20547;-72
2022/04/28 05:51:25;;;;;;;1.98;1.40;;;6.00;99.90;;;;;;5054857;28;20503;-73
2022/04/28 05:53:51;;;;;;;0.68;0.57;;;6.20;99.90;;;;;;5062590;28;20119;-73
2022/04/28 05:56:17;;;;;;;0.20;0.20;;;6.30;99.90;;;;;;5052657;28;20048;-72
2022/04/28 05:58:42;;;;;;;2.40;2.20;;;6.50;99.90;;;;;;5035289;28;20063;-72
2022/04/28 06:01:08;;;;;;;0.73;0.73;;;6.80;99.90;;;;;;5052128;28;20391;-72
2022/04/28 06:03:34;;;;;;;2.22;1.38;;;6.90;99.90;;;;;;5073127;28;20135;-72
2022/04/28 06:06:00;;;;;;;0.25;0.25;;;7.00;99.90;;;;;;5057559;28;20586;-72
2022/04/28 06:08:25;;;;;;;1.58;1.38;;;7.20;99.90;;;;;;5054698;28;20114;-72
2022/04/28 06:10:51;;;;;;;0.20;0.20;;;7.40;99.90;;;;;;5051123;28;20025;-72
2022/04/28 06:13:17;;;;;;;0.63;0.63;;;7.50;99.90;;;;;;5074796;28;20380;-73
2022/04/28 06:15:43;;;;;;;3.75;2.47;;;7.70;99.90;;;;;;5061229;28;20520;-73
2022/04/28 06:18:09;;;;;;;0.20;0.20;;;7.60;99.90;;;;;;5053603;28;20108;-72
2022/04/28 06:20:34;;;;;;;0.20;0.20;;;7.70;99.90;;;;;;5052060;28;20112;-73
2022/04/28 06:23:00;;;;;;;3.83;1.20;;;7.90;99.90;;;;;;5052736;28;20552;-72
2022/04/28 06:25:26;;;;;;;6.88;6.18;;;7.90;99.90;;;;;;5053913;28;20027;-73
2022/04/28 06:27:52;;;;;;;0.17;0.17;;;8.10;99.90;;;;;;5054185;28;20025;-73
2022/04/28 06:30:20;;;;;;;2.15;1.55;;;8.30;99.90;;;;;;5040392;28;20037;-73
2022/04/28 06:32:46;;;;;;;0.47;0.38;;;8.40;99.90;;;;;;5057960;28;20479;-72
2022/04/28 06:35:12;;;;;;;2.47;0.60;;;8.40;99.90;;;;;;5045463;28;20096;-73
2022/04/28 06:37:39;;;;;;;1.42;0.50;;;8.50;99.90;;;;;;5052685;28;20029;-72
2022/04/28 06:40:05;;;;;;;2.85;1.55;;;8.60;99.90;;;;;;5054063;28;20212;-72
2022/04/28 06:42:31;;;;;;;0.28;0.28;;;8.60;99.90;;;;;;5054226;28;20090;-72
2022/04/28 06:44:57;;;;;;;0.88;0.88;;;8.70;99.90;;;;;;5053918;28;20037;-72
2022/04/28 06:47:23;;;;;;;0.20;0.20;;;8.70;99.90;;;;;;5053675;28;20044;-73
2022/04/28 06:49:49;;;;;;;0.35;0.35;;;8.90;99.90;;;;;;5054067;28;20025;-73
2022/04/28 06:52:14;;;;;;;0.20;0.20;;;8.90;99.90;;;;;;5053608;28;20563;-73
2022/04/28 06:54:40;;;;;;;0.45;0.45;;;9.10;99.90;;;;;;5054203;28;20029;-73
2022/04/28 06:57:06;;;;;;;0.85;0.85;;;9.20;99.90;;;;;;5053302;28;20028;-73
2022/04/28 06:59:32;;;;;;;1.23;1.23;;;9.30;99.90;;;;;;5054100;28;20102;-75
2022/04/28 07:01:58;;;;;;;0.10;0.10;;;9.50;99.90;;;;;;5051883;28;20443;-73
2022/04/28 07:04:24;;;;;;;1.10;1.00;;;9.60;99.90;;;;;;5053255;28;20025;-73
2022/04/28 07:06:49;;;;;;;0.43;0.43;;;9.70;99.90;;;;;;5053013;28;20021;-73
2022/04/28 07:09:15;;;;;;;0.52;0.52;;;9.80;99.90;;;;;;5053788;28;20116;-73
2022/04/28 07:11:41;;;;;;;0.13;0.13;;;10.00;99.90;;;;;;5053404;28;20032;-73
2022/04/28 07:14:06;;;;;;;3.45;3.22;;;10.10;99.90;;;;;;5053634;28;20029;-73
2022/04/28 07:16:32;;;;;;;0.35;0.35;;;10.10;99.90;;;;;;5052327;28;20027;-73
2022/04/28 07:18:58;;;;;;;0.30;0.30;;;10.10;99.90;;;;;;5041525;28;20033;-73
2022/04/28 07:21:27;;;;;;;0.70;0.70;;;10.20;99.90;;;;;;5034544;28;20028;-73
2022/04/28 07:23:53;;;;;;;0.93;0.93;;;10.20;99.90;;;;;;5032405;28;20666;-74
2022/04/28 07:26:18;;;;;;;0.77;0.77;;;10.30;99.90;;;;;;5041335;28;20036;-74
2022/04/28 07:28:44;;;;;;;3.03;1.25;;;10.40;99.90;;;;;;5042584;28;20361;-74
2022/04/28 07:31:10;;;;;;;0.40;0.40;;;10.50;99.90;;;;;;5042271;28;20036;-74
2022/04/28 07:33:36;;;;;;;0.45;0.45;;;10.60;99.90;;;;;;5042275;28;20524;-74
2022/04/28 07:36:01;;;;;;;0.90;0.65;;;10.70;99.90;;;;;;5041414;28;20049;-74
2022/04/28 07:38:27;;;;;;;2.78;2.20;;;10.80;99.90;;;;;;5041510;28;20901;-74
2022/04/28 07:40:54;;;;;;;1.77;1.10;;;11.00;99.90;;;;;;5041900;28;20400;-74
2022/04/28 07:43:20;;;;;;;0.20;0.20;;;11.00;99.90;;;;;;5043064;28;20064;-74
2022/04/28 07:45:49;;;;;;;1.75;0.95;;;11.10;99.90;;;;;;5043161;28;20696;-74
2022/04/28 07:48:15;;;;;;;0.80;0.80;;;11.00;99.90;;;;;;5043669;28;20392;-74
2022/04/28 07:50:40;;;;;;;0.38;0.38;;;11.30;99.90;;;;;;5032793;28;20029;-74
2022/04/28 07:53:06;;;;;;;1.95;0.47;;;11.40;99.90;;;;;;5043340;28;20035;-74
2022/04/28 07:55:32;;;;;;;0.40;0.40;;;11.70;99.90;;;;;;5044246;28;20443;-77
2022/04/28 07:57:58;;;;;;;0.75;0.75;;;11.80;99.90;;;;;;5036152;28;20070;-76
2022/04/28 08:00:24;;;;;;;0.43;0.40;;;11.80;99.90;;;;;;5045286;28;20025;-74
2022/04/28 08:02:49;;;;;;;0.43;0.43;;;11.90;99.90;;;;;;5041101;28;20048;-73
2022/04/28 08:05:15;;;;;;;0.55;0.40;;;12.00;99.90;;;;;;5042492;28;20140;-74
2022/04/28 08:07:41;;;;;;;0.73;0.73;;;12.20;99.90;;;;;;5031418;28;20488;-73
2022/04/28 08:10:07;;;;;;;0.30;0.30;;;12.30;99.90;;;;;;5042558;28;20048;-73
2022/04/28 08:12:34;;;;;;;0.75;0.75;;;12.50;99.70;;;;;;5031950;28;20561;-74
2022/04/28 08:14:59;;;;;;;1.65;1.55;;;12.80;98.80;;;;;;5041595;28;20890;-74
2022/04/28 08:17:26;;;;;;;3.92;1.40;;;12.80;96.80;;;;;;5041047;28;20090;-73
2022/04/28 08:19:52;;;;;;;0.90;0.88;;;13.00;95.80;;;;;;5030498;28;20036;-74
2022/04/28 08:22:18;;;;;;;0.35;0.35;;;12.90;95.90;;;;;;5040938;28;20040;-74
2022/04/28 08:24:43;;;;;;;0.20;0.20;;;13.00;94.90;;;;;;5030851;28;20033;-73
2022/04/28 08:27:10;;;;;;;0.43;0.43;;;13.20;94.20;;;;;;5040685;28;20025;-74
2022/04/28 08:29:35;;;;;;;0.50;0.50;;;13.30;93.40;;;;;;5041304;28;20452;-74
2022/04/28 08:32:01;;;;;;;3.45;2.58;;;13.50;92.10;;;;;;5041038;28;20100;-73
2022/04/28 08:34:27;;;;;;;3.45;1.45;;;13.50;91.00;;;;;;5041504;28;20082;-74
2022/04/28 08:36:53;;;;;;;0.93;0.93;;;13.70;90.30;;;;;;5040870;28;20169;-74
2022/04/28 08:39:19;;;;;;;1.63;1.50;;;13.70;90.00;;;;;;5041133;28;20125;-73
2022/04/28 08:41:45;;;;;;;0.30;0.30;;;13.90;89.50;;;;;;5030586;28;20025;-74
2022/04/28 08:44:23;;;;;;;0.43;0.43;;;13.90;88.70;;;;;;5041360;28;20033;-74
2022/04/28 08:46:52;;;;;;;0.85;0.43;;;14.30;88.70;;;;;;5040769;28;20052;-73
2022/04/28 08:49:22;;;;;;;0.55;0.52;;;14.40;83.10;;;;;;5040446;28;20037;-74
2022/04/28 08:51:51;;;;;;;1.58;0.85;;;14.50;81.10;;;;;;5040676;28;20036;-73
2022/04/28 08:54:17;;;;;;;3.60;1.30;;;14.70;78.50;;;;;;5030715;28;20053;-74
2022/04/28 08:56:44;;;;;;;2.78;2.67;;;14.90;78.40;;;;;;5040175;28;20476;-74
2022/04/28 08:59:10;;;;;;;2.17;1.98;;;15.00;76.80;;;;;;5040697;28;20488;-73
2022/04/28 09:01:36;;;;;;;1.13;1.05;;;15.20;76.40;;;;;;5029984;28;20380;-74
2022/04/28 09:04:04;;;;;;;1.35;1.02;;;15.40;75.60;;;;;;5031931;28;20033;-74
2022/04/28 09:06:34;;;;;;;1.85;1.45;;;15.60;73.10;;;;;;5040870;28;20029;-74
2022/04/28 09:09:06;;;;;;;1.42;1.33;;;15.50;73.90;;;;;;5029380;28;20396;-74
2022/04/28 09:11:39;;;;;;;0.63;0.63;;;15.70;74.30;;;;;;5040866;28;20025;-74
2022/04/28 09:14:17;;;;;;;0.90;0.90;;;16.00;73.70;;;;;;5032694;28;20040;-74
2022/04/28 09:16:52;;;;;;;1.50;1.27;;;16.40;69.50;;;;;;5044603;28;20182;-73
2022/04/28 09:19:27;;;;;;;0.40;0.40;;;16.40;68.80;;;;;;5044117;28;20094;-74
2022/04/28 09:21:55;;;;;;;5.30;1.50;;;16.70;67.40;;;;;;5045341;28;20025;-73
2022/04/28 09:24:22;;;;;;;2.90;2.70;;;16.80;66.50;;;;;;5044760;28;20117;-74
2022/04/28 09:26:49;;;;;;;0.93;0.80;;;16.80;66.20;;;;;;5044863;28;20025;-74
2022/04/28 09:29:17;;;;;;;1.15;1.05;;;17.00;65.10;;;;;;5044709;28;20033;-73
2022/04/28 09:31:44;;;;;;;0.25;0.25;;;17.10;64.40;;;;;;5044719;28;20099;-74
2022/04/28 09:34:12;;;;;;;2.38;1.45;;;17.30;61.90;;;;;;5044089;28;20098;-74
2022/04/28 09:36:39;;;;;;;0.60;0.60;;;17.50;60.40;;;;;;5032374;28;20033;-74
2022/04/28 09:39:06;;;;;;;0.80;0.80;;;17.40;59.60;;;;;;5043503;28;20037;-74
2022/04/28 09:44:20;;;;;;;1.60;1.20;;;17.70;60.50;;;;;;5043417;28;20045;-74
2022/04/28 09:46:47;;;;;;;3.28;1.00;;;18.20;59.30;;;;;;5033503;28;20029;-73
2022/04/28 09:49:20;;;;;;;13.70;2.97;;;18.60;57.90;;;;;;5044509;28;20033;-73
2022/04/28 09:51:46;;;;;;;1.58;1.02;;;18.60;56.40;;;;;;5043431;28;20041;-74
2022/04/28 09:54:14;;;;;;;1.27;1.13;;;18.40;57.90;;;;;;5043579;28;20033;-74
2022/04/28 09:56:43;;;;;;;5.57;0.68;;;18.20;58.10;;;;;;5033213;28;20033;-74
2022/04/28 09:59:11;;;;;;;1.48;1.38;;;18.40;58.20;;;;;;5043137;28;20116;-73
2022/04/28 10:01:38;;;;;;;0.45;0.45;;;18.60;56.50;;;;;;5043175;28;20363;-74
2022/04/28 10:04:08;;;;;;;0.30;0.30;;;18.80;56.70;;;;;;5043149;28;20071;-71
2022/04/28 10:06:35;;;;;;;1.38;1.27;;;19.10;56.30;;;;;;5043258;28;20079;-71
2022/04/28 10:09:09;;;;;;;0.10;0.10;;;19.00;54.80;;;;;;5043632;28;20128;-72
2022/04/28 10:11:37;;;;;;;0.13;0.13;;;19.40;55.10;;;;;;5033983;28;20037;-72
2022/04/28 10:14:03;;;;;;;0.47;0.47;;;19.60;54.60;;;;;;5042779;28;20025;-72
2022/04/28 10:16:29;;;;;;;1.27;0.63;;;19.30;56.90;;;;;;5044263;28;20037;-71
2022/04/28 10:19:00;;;;;;;0.10;0.10;;;19.70;54.60;;;;;;5041987;28;20060;-72
2022/04/28 10:21:36;;;;;;;0.90;0.45;;;19.70;54.90;;;;;;5042976;28;20752;-72
2022/04/28 10:32:58;;;;;;;0.13;0.13;;;18.00;53.30;;;;;;5042357;28;20110;-72
2022/04/28 10:35:43;;;;;;;8.25;0.85;;;18.50;53.90;;;;;;5042625;28;20078;-72
2022/04/28 10:38:30;;;;;;;1.33;1.23;;;18.90;51.50;;;;;;5043828;28;20389;-72
2022/04/28 10:41:01;;;;;;;0.15;0.10;;;19.10;50.20;;;;;;5043818;28;20033;-71
2022/04/28 10:43:28;;;;;;;0.22;0.22;;;19.40;49.50;;;;;;5044221;28;20055;-72
2022/04/28 10:45:56;;;;;;;0.10;0.10;;;19.90;49.70;;;;;;5043939;28;20036;-72
2022/04/28 10:48:28;;;;;;;0.77;0.77;;;19.80;48.50;;;;;;5044437;28;20116;-72
2022/04/28 10:51:17;;;;;;;0.13;0.13;;;19.90;47.90;;;;;;5034148;28;20397;-71
2022/04/28 10:54:05;;;;;;;0.40;0.40;;;19.50;47.20;;;;;;5033434;28;20059;-72
2022/04/28 10:56:40;;;;;;;0.00;0.00;;;19.50;46.00;;;;;;5013709;28;20037;-72
2022/04/28 10:59:35;;;;;;;2.72;1.23;;;20.00;47.10;;;;;;5038701;28;20041;-72
2022/04/28 11:02:10;;;;;;;3.70;1.00;;;19.80;47.10;;;;;;5032592;28;20132;-72
2022/04/28 11:04:37;;;;;;;1.55;0.85;;;20.10;49.20;;;;;;5042532;28;20025;-72
2022/04/28 11:07:12;;;;;;;0.80;0.73;;;19.90;48.80;;;;;;5041781;28;20031;-72
2022/04/28 11:09:43;;;;;;;0.30;0.30;;;20.00;47.70;;;;;;5041632;28;20025;-72
2022/04/28 11:12:18;;;;;;;0.32;0.32;;;19.90;47.30;;;;;;5042077;28;20025;-72
2022/04/28 11:14:45;;;;;;;1.13;0.98;;;20.10;47.90;;;;;;5031212;28;20036;-72
2022/04/28 11:17:12;;;;;;;1.60;0.75;;;19.60;47.50;;;;;;5042091;28;20477;-72
2022/04/28 11:19:39;;;;;;;0.20;0.20;;;19.50;48.20;;;;;;5040928;28;20029;-72
2022/04/28 11:22:05;;;;;;;1.67;1.50;;;19.60;48.60;;;;;;5043001;28;20025;-72
2022/04/28 11:24:32;;;;;;;0.77;0.77;;;19.30;48.30;;;;;;5035498;28;20032;-72
2022/04/28 11:27:01;;;;;;;0.20;0.20;;;19.60;48.10;;;;;;5045380;28;20480;-73
2022/04/28 11:29:31;;;;;;;0.43;0.43;;;20.00;48.90;;;;;;5031566;28;20037;-72
2022/04/28 11:32:00;;;;;;;1.55;1.17;;;20.30;46.60;;;;;;5042581;28;20036;-72
2022/04/28 11:34:29;;;;;;;2.15;1.42;;;19.80;44.80;;;;;;5030626;28;20037;-71
2022/04/28 11:36:55;;;;;;;4.15;1.70;;;19.30;45.60;;;;;;5040878;28;20102;-72
2022/04/28 11:39:24;;;;;;;1.10;1.00;;;19.50;46.60;;;;;;5039977;28;20029;-72
2022/04/28 11:41:52;;;;;;;0.10;0.10;;;19.80;44.90;;;;;;5041212;28;20044;-72
2022/04/28 11:44:19;;;;;;;0.32;0.32;;;20.00;44.20;;;;;;5041288;28;20044;-72
2022/04/28 11:46:44;;;;;;;2.83;1.77;;;20.50;43.30;;;;;;5040731;28;20136;-72
2022/04/28 11:49:10;;;;;;;1.67;1.10;;;20.50;43.70;;;;;;5041318;28;21598;-72
2022/04/28 11:51:36;;;;;;;0.80;0.80;;;20.20;43.90;;;;;;5040619;28;20036;-71
2022/04/28 11:54:19;;;;;;;0.28;0.28;;;20.30;44.80;;;;;;5040671;28;20029;-72
2022/04/28 11:56:45;;;;;;;0.68;0.50;;;20.30;44.60;;;;;;5040370;28;20040;-72
2022/04/28 11:59:11;;;;;;;0.93;0.88;;;20.30;43.80;;;;;;5040430;28;20116;-72
2022/04/28 12:01:39;;;;;;;0.88;0.40;;;20.20;44.40;;;;;;5040147;28;20495;-72
2022/04/28 12:04:05;;;;;;;0.47;0.47;;;20.10;44.60;;;;;;5039921;28;20029;-72
2022/04/28 12:06:32;;;;;;;0.47;0.47;;;19.90;43.80;;;;;;5029723;28;20029;-75
2022/04/28 12:08:59;;;;;;;0.13;0.13;;;19.70;42.80;;;;;;5033214;28;20111;-74
2022/04/28 12:14:25;;;;;;;1.65;1.02;;;19.70;44.10;;;;;;5040486;28;20029;-72
2022/04/28 12:19:59;;;;;;;0.77;0.75;;;18.90;45.00;;;;;;5039469;28;20052;-72
2022/04/28 12:22:35;;;;;;;0.80;0.52;;;18.60;47.10;;;;;;5040803;28;20025;-72
2022/04/28 12:25:07;;;;;;;3.63;1.58;;;18.60;47.00;;;;;;5031256;28;20532;-72
2022/04/28 12:27:44;;;;;;;0.60;0.43;;;18.60;47.00;;;;;;5040459;28;20118;-71
2022/04/28 12:30:15;;;;;;;0.00;0.00;;;18.50;46.60;;;;;;5030090;28;20036;-71
2022/04/28 12:32:50;;;;;;;0.90;0.90;;;18.40;46.50;;;;;;5040573;28;20032;-71
2022/04/28 12:35:22;;;;;;;0.40;0.40;;;18.30;47.00;;;;;;5040489;28;20075;-72
2022/04/28 12:37:54;;;;;;;0.52;0.28;;;18.20;47.30;;;;;;5039807;28;20033;-71
2022/04/28 12:40:20;;;;;;;0.10;0.10;;;18.10;48.30;;;;;;5040035;28;20032;-71
2022/04/28 12:42:47;;;;;;;0.45;0.45;;;18.40;47.90;;;;;;5040896;28;20401;-72
2022/04/28 12:45:14;;;;;;;1.27;0.95;;;18.40;49.00;;;;;;5039555;28;20250;-71
2022/04/28 12:47:42;;;;;;;0.73;0.63;;;18.30;48.10;;;;;;5040212;28;20076;-72
2022/04/28 12:50:22;;;;;;;0.68;0.68;;;18.40;48.30;;;;;;5039744;28;20036;-72
2022/04/28 12:52:48;;;;;;;0.88;0.52;;;18.40;47.20;;;;;;5040519;28;20630;-71
2022/04/28 12:55:14;;;;;;;2.22;0.73;;;18.30;47.50;;;;;;5040463;28;20040;-71
2022/04/28 12:57:41;;;;;;;0.57;0.57;;;18.20;47.20;;;;;;5039270;28;20021;-71
2022/04/28 13:00:09;;;;;;;1.20;0.63;;;18.10;46.80;;;;;;5040408;28;20036;-72
2022/04/28 13:02:35;;;;;;;1.00;0.93;;;18.00;46.70;;;;;;5039492;28;20025;-71
2022/04/28 13:05:13;;;;;;;0.68;0.68;;;17.80;48.40;;;;;;5039910;28;20520;-71
2022/04/28 13:07:42;;;;;;;0.60;0.60;;;17.80;47.10;;;;;;5038868;28;20025;-71
2022/04/28 13:10:09;;;;;;;0.10;0.10;;;17.80;47.80;;;;;;5040306;28;20044;-71
2022/04/28 13:12:36;;;;;;;1.60;1.08;;;17.70;48.40;;;;;;5039758;28;20032;-71
2022/04/28 13:15:04;;;;;;;0.40;0.40;;;17.60;47.20;;;;;;5039256;28;20025;-72
2022/04/28 13:17:30;;;;;;;0.63;0.57;;;17.50;47.80;;;;;;5040476;28;20128;-73
2022/04/28 13:19:56;;;;;;;4.72;0.95;;;17.60;48.50;;;;;;5040201;28;20025;-74
2022/04/28 13:22:23;;;;;;;0.47;0.47;;;17.60;48.70;;;;;;5039339;28;20032;-73
2022/04/28 13:24:48;;;;;;;0.43;0.43;;;17.80;50.00;;;;;;5040418;28;20037;-73
2022/04/28 13:27:14;;;;;;;0.75;0.75;;;17.60;47.50;;;;;;5039551;28;20385;-73
2022/04/28 13:29:40;;;;;;;1.27;0.93;;;17.60;47.80;;;;;;5040565;28;20792;-73
2022/04/28 13:34:41;;;;;;;0.65;0.45;;;17.50;48.60;;;;;;5029276;28;20052;-74